createdAt,value
2023-01-26T00:00:59.893Z,8.02
2023-01-26T00:03:34.052Z,6.50
2023-01-26T00:06:08.078Z,7.22
2023-01-26T00:08:41.991Z,7.38
2023-01-26T00:11:15.578Z,7.75
2023-01-26T00:13:49.915Z,6.07
2023-01-26T00:16:23.723Z,7.30
2023-01-26T00:18:55.942Z,6.22
2023-01-26T00:21:27.949Z,6.75
2023-01-26T00:24:00.268Z,7.72
2023-01-26T00:26:32.254Z,6.60
2023-01-26T00:29:04.184Z,6.18
2023-01-26T00:31:37.590Z,7.07
2023-01-26T00:34:09.563Z,6.72
2023-01-26T00:36:41.604Z,6.88
2023-01-26T00:39:13.562Z,6.50
2023-01-26T00:42:04.267Z,6.47
2023-01-26T00:44:37.888Z,6.30
2023-01-26T00:47:13.082Z,6.03
2023-01-26T00:49:45.602Z,5.85
2023-01-26T00:52:17.549Z,6.45
2023-01-26T00:54:49.543Z,5.78
2023-01-26T00:57:21.532Z,6.85
2023-01-26T00:59:53.496Z,6.78
2023-01-26T01:02:26.882Z,7.10
2023-01-26T01:04:58.828Z,7.15
2023-01-26T01:07:31.312Z,6.88
2023-01-26T01:10:03.526Z,6.47
2023-01-26T01:12:38.107Z,6.93
2023-01-26T01:15:11.076Z,7.38
2023-01-26T01:17:45.576Z,6.13
2023-01-26T01:20:17.694Z,6.18
2023-01-26T01:22:52.326Z,6.65
2023-01-26T01:25:24.289Z,6.35
2023-01-26T01:27:56.302Z,6.63
2023-01-26T01:30:28.391Z,6.13
2023-01-26T01:33:01.844Z,5.70
2023-01-26T01:35:35.902Z,6.85
2023-01-26T01:38:07.878Z,6.55
2023-01-26T01:40:43.150Z,6.00
2023-01-26T01:43:15.159Z,6.15
2023-01-26T01:45:48.176Z,5.78
2023-01-26T01:48:25.894Z,6.28
2023-01-26T01:51:03.192Z,6.53
2023-01-26T01:53:40.963Z,6.65
2023-01-26T01:56:19.131Z,6.32
2023-01-26T01:58:53.834Z,6.03
2023-01-26T02:01:26.419Z,6.40
2023-01-26T02:04:02.210Z,8.02
2023-01-26T02:06:39.615Z,5.90
2023-01-26T02:09:32.251Z,5.32
2023-01-26T02:12:09.009Z,6.43
2023-01-26T02:14:42.849Z,6.63
2023-01-26T02:17:14.783Z,6.13
2023-01-26T02:19:58.469Z,6.53
2023-01-26T02:22:42.260Z,6.13
2023-01-26T02:25:23.134Z,6.82
2023-01-26T02:27:56.500Z,6.93
2023-01-26T02:30:29.346Z,6.85
2023-01-26T02:33:01.520Z,6.55
2023-01-26T02:35:33.536Z,6.15
2023-01-26T02:38:08.522Z,6.47
2023-01-26T02:40:47.536Z,5.85
2023-01-26T02:43:26.153Z,7.90
2023-01-26T02:45:58.419Z,6.47
2023-01-26T02:48:49.312Z,7.20
2023-01-26T02:51:21.348Z,7.40
2023-01-26T02:53:53.638Z,7.40
2023-01-26T02:56:25.581Z,8.15
2023-01-26T02:58:58.958Z,8.05
2023-01-26T03:01:32.529Z,8.20
2023-01-26T03:04:04.969Z,8.73
2023-01-26T03:06:36.897Z,9.57
2023-01-26T03:09:08.936Z,8.50
2023-01-26T03:11:43.774Z,9.65
2023-01-26T03:14:17.328Z,9.75
2023-01-26T03:16:49.313Z,10.05
2023-01-26T03:19:39.898Z,10.55
2023-01-26T03:22:32.538Z,11.43
2023-01-26T03:27:58.992Z,12.10
2023-01-26T03:30:32.459Z,13.02
2023-01-26T03:33:05.862Z,12.65
2023-01-26T03:35:38.735Z,14.63
2023-01-26T03:38:11.043Z,12.63
2023-01-26T03:41:16.520Z,14.57
2023-01-26T03:44:06.929Z,13.55
2023-01-26T03:46:58.861Z,16.13
2023-01-26T03:49:49.369Z,14.90
2023-01-26T03:52:40.015Z,14.88
2023-01-26T03:55:32.487Z,15.25
2023-01-26T03:58:04.513Z,16.23
2023-01-26T04:00:36.553Z,17.30
2023-01-26T04:03:28.348Z,15.23
2023-01-26T04:06:19.239Z,18.75
2023-01-26T04:08:53.902Z,17.17
2023-01-26T04:11:25.819Z,19.88
2023-01-26T04:14:16.308Z,19.08
2023-01-26T04:17:06.766Z,18.80
2023-01-26T04:19:58.914Z,18.63
2023-01-26T04:22:31.392Z,19.65
2023-01-26T04:25:03.448Z,20.90
2023-01-26T04:27:35.427Z,21.08
2023-01-26T04:30:10.115Z,19.95
2023-01-26T04:32:42.638Z,20.48
2023-01-26T04:35:16.268Z,22.20
2023-01-26T04:37:48.756Z,23.38
2023-01-26T04:40:20.997Z,21.45
2023-01-26T04:42:54.337Z,21.00
2023-01-26T04:45:26.361Z,21.70
2023-01-26T04:47:59.052Z,23.83
2023-01-26T04:50:33.004Z,23.30
2023-01-26T04:53:06.039Z,20.88
2023-01-26T04:55:38.095Z,24.85
2023-01-26T04:58:10.061Z,23.80
2023-01-26T05:00:42.960Z,20.90
2023-01-26T05:03:15.045Z,23.77
2023-01-26T05:05:50.849Z,23.90
2023-01-26T05:08:24.164Z,24.15
2023-01-26T05:10:56.234Z,24.63
2023-01-26T05:13:31.069Z,24.67
2023-01-26T05:16:19.914Z,25.70
2023-01-26T05:19:08.022Z,23.50
2023-01-26T05:21:50.629Z,24.75
2023-01-26T05:24:22.794Z,22.83
2023-01-26T05:27:22.042Z,22.50
2023-01-26T05:30:00.478Z,23.40
2023-01-26T05:32:33.115Z,24.35
2023-01-26T05:35:06.573Z,23.73
2023-01-26T05:37:42.401Z,24.17
2023-01-26T05:40:15.077Z,25.75
2023-01-26T05:42:47.142Z,26.08
2023-01-26T05:45:25.483Z,25.95
2023-01-26T05:48:01.091Z,24.25
2023-01-26T05:50:33.130Z,27.30
2023-01-26T05:53:27.173Z,25.67
2023-01-26T05:55:59.336Z,25.85
2023-01-26T05:58:33.067Z,25.25
2023-01-26T06:01:05.372Z,26.77
2023-01-26T06:03:45.908Z,23.88
2023-01-26T06:06:18.033Z,24.23
2023-01-26T06:08:59.098Z,25.38
2023-01-26T06:11:50.993Z,26.55
2023-01-26T06:14:44.230Z,24.58
2023-01-26T06:17:18.534Z,27.33
2023-01-26T06:19:51.412Z,25.67
2023-01-26T06:22:23.697Z,28.27
2023-01-26T06:24:58.179Z,28.27
2023-01-26T06:27:30.218Z,27.25
2023-01-26T06:30:05.477Z,24.55
2023-01-26T06:32:37.982Z,27.98
2023-01-26T06:35:10.271Z,25.80
2023-01-26T06:37:42.858Z,28.48
2023-01-26T06:40:16.933Z,31.63
2023-01-26T06:42:49.265Z,28.30
2023-01-26T06:45:23.111Z,33.38
2023-01-26T06:47:56.369Z,27.20
2023-01-26T06:50:33.238Z,33.10
2023-01-26T06:53:25.931Z,28.23
2023-01-26T06:56:16.025Z,30.25
2023-01-26T06:59:01.632Z,26.63
2023-01-26T07:02:02.633Z,29.48
2023-01-26T07:04:34.735Z,28.52
2023-01-26T07:07:06.781Z,28.02
2023-01-26T07:09:38.985Z,25.95
2023-01-26T07:12:12.343Z,26.20
2023-01-26T07:14:44.376Z,29.63
2023-01-26T07:17:16.292Z,27.65
2023-01-26T07:19:48.441Z,30.95
2023-01-26T07:22:20.486Z,26.75
2023-01-26T07:24:52.437Z,26.65
2023-01-26T07:27:26.087Z,29.52
2023-01-26T07:29:58.080Z,30.60
2023-01-26T07:32:30.036Z,32.00
2023-01-26T07:35:02.416Z,32.13
2023-01-26T07:37:34.403Z,29.83
2023-01-26T07:40:07.952Z,30.30
2023-01-26T07:42:41.335Z,32.05
2023-01-26T07:45:23.558Z,33.58
2023-01-26T07:47:55.772Z,32.83
2023-01-26T07:50:27.721Z,31.10
2023-01-26T07:53:00.687Z,33.20
2023-01-26T07:55:32.601Z,31.30
2023-01-26T07:58:05.955Z,32.22
2023-01-26T08:00:38.053Z,28.55
2023-01-26T08:03:10.104Z,39.33
2023-01-26T08:05:43.315Z,33.20
2023-01-26T08:08:15.466Z,33.00
2023-01-26T08:10:47.411Z,31.83
2023-01-26T08:13:33.742Z,37.10
2023-01-26T08:16:11.964Z,34.17
2023-01-26T08:18:45.958Z,31.50
2023-01-26T08:21:19.076Z,32.53
2023-01-26T08:23:51.990Z,31.77
2023-01-26T08:26:24.145Z,34.88
2023-01-26T08:28:57.543Z,32.25
2023-01-26T08:31:29.773Z,32.20
2023-01-26T08:34:01.777Z,34.55
2023-01-26T08:36:33.720Z,33.65
2023-01-26T08:39:05.912Z,34.53
2023-01-26T08:41:38.379Z,32.13
2023-01-26T08:44:11.944Z,31.23
2023-01-26T08:46:44.188Z,30.52
2023-01-26T08:49:16.428Z,32.25
2023-01-26T08:51:48.384Z,31.65
2023-01-26T08:54:20.345Z,36.05
2023-01-26T08:56:53.454Z,44.25
2023-01-26T08:59:26.793Z,39.05
2023-01-26T09:01:58.824Z,45.28
2023-01-26T09:04:30.870Z,55.78
2023-01-26T09:07:02.851Z,38.72
2023-01-26T09:09:34.776Z,36.20
2023-01-26T09:12:06.820Z,42.15
2023-01-26T09:14:41.287Z,37.03
2023-01-26T09:17:13.250Z,37.53
2023-01-26T09:19:45.440Z,33.63
2023-01-26T09:22:17.510Z,30.80
2023-01-26T09:24:49.550Z,32.05
2023-01-26T09:27:21.558Z,33.25
2023-01-26T09:29:56.063Z,32.42
2023-01-26T09:32:28.110Z,32.08
2023-01-26T09:35:00.248Z,29.75
2023-01-26T09:37:32.236Z,28.40
2023-01-26T09:40:05.009Z,28.17
2023-01-26T09:42:47.795Z,31.02
2023-01-26T09:45:27.094Z,29.40
2023-01-26T09:48:17.325Z,30.83
2023-01-26T09:50:54.601Z,32.90
2023-01-26T09:53:34.667Z,31.42
2023-01-26T09:56:10.498Z,34.83
2023-01-26T09:58:47.237Z,34.80
2023-01-26T10:01:26.835Z,34.30
2023-01-26T10:04:05.568Z,36.75
2023-01-26T10:06:38.554Z,33.55
2023-01-26T10:09:22.870Z,32.20
2023-01-26T10:11:58.685Z,29.15
2023-01-26T10:14:36.262Z,30.27
2023-01-26T10:17:16.125Z,33.38
2023-01-26T10:19:52.124Z,31.65
2023-01-26T10:22:35.734Z,32.38
2023-01-26T10:25:15.941Z,30.83
2023-01-26T10:30:21.382Z,31.65
2023-01-26T10:32:56.073Z,29.73
2023-01-26T10:35:28.057Z,27.27
2023-01-26T10:38:00.037Z,30.55
2023-01-26T10:40:44.540Z,30.40
2023-01-26T10:43:19.137Z,33.72
2023-01-26T10:45:51.026Z,32.25
2023-01-26T10:48:26.756Z,30.42
2023-01-26T10:51:16.256Z,32.85
2023-01-26T10:53:48.413Z,31.15
2023-01-26T10:56:20.524Z,28.48
2023-01-26T10:58:55.901Z,29.20
2023-01-26T11:01:28.076Z,27.27
2023-01-26T11:04:05.920Z,28.73
2023-01-26T11:06:38.514Z,28.33
2023-01-26T11:09:17.447Z,31.67
2023-01-26T11:11:58.506Z,28.98
2023-01-26T11:14:32.301Z,30.55
2023-01-26T11:17:16.459Z,29.55
2023-01-26T11:20:07.403Z,27.25
2023-01-26T11:22:46.209Z,31.40
2023-01-26T11:25:25.481Z,32.50
2023-01-26T11:28:14.931Z,28.42
2023-01-26T11:31:05.762Z,22.43
2023-01-26T11:33:48.896Z,29.90
2023-01-26T11:36:32.045Z,33.53
2023-01-26T11:39:16.981Z,34.33
2023-01-26T11:42:13.659Z,42.13
2023-01-26T11:45:03.993Z,37.30
2023-01-26T11:50:33.768Z,35.05
2023-01-26T11:53:27.192Z,30.58
2023-01-26T11:56:13.354Z,33.75
2023-01-26T11:58:50.191Z,30.88
2023-01-26T12:01:28.942Z,29.50
2023-01-26T12:04:01.021Z,30.17
2023-01-26T12:06:38.330Z,29.65
2023-01-26T12:09:18.832Z,30.90
2023-01-26T12:11:58.715Z,30.30
2023-01-26T12:14:38.154Z,29.67
2023-01-26T12:17:28.416Z,33.07
2023-01-26T12:22:40.567Z,26.92
2023-01-26T12:25:27.249Z,30.20
2023-01-26T12:28:10.888Z,30.40
2023-01-26T12:30:51.070Z,31.45
2023-01-26T12:33:23.630Z,27.70
2023-01-26T12:36:17.146Z,31.15
2023-01-26T12:39:08.123Z,33.42
2023-01-26T12:41:59.059Z,29.52
2023-01-26T12:44:38.748Z,28.58
2023-01-26T12:47:16.442Z,29.80
2023-01-26T12:49:55.590Z,29.08
2023-01-26T12:52:34.640Z,38.38
2023-01-26T12:55:15.378Z,31.27
2023-01-26T12:57:52.881Z,28.48
2023-01-26T13:00:29.799Z,28.40
2023-01-26T13:03:06.214Z,29.67
2023-01-26T13:05:56.062Z,30.85
2023-01-26T13:08:51.591Z,29.45
2023-01-26T13:11:47.625Z,28.27
2023-01-26T13:14:33.922Z,28.63
2023-01-26T13:17:45.192Z,28.67
2023-01-26T13:20:45.193Z,26.13
2023-01-26T13:23:52.421Z,32.85
2023-01-26T13:26:43.423Z,29.27
2023-01-26T13:29:33.104Z,28.55
2023-01-26T13:32:44.436Z,27.52
2023-01-26T13:35:20.742Z,24.40
2023-01-26T13:38:00.720Z,28.73
2023-01-26T13:40:35.824Z,27.90
2023-01-26T13:43:26.226Z,25.15
2023-01-26T13:46:13.511Z,26.65
2023-01-26T13:48:47.783Z,23.58
2023-01-26T13:51:22.407Z,26.38
2023-01-26T13:53:59.150Z,28.10
2023-01-26T13:56:34.088Z,24.63
2023-01-26T13:59:11.938Z,25.65
2023-01-26T14:01:47.598Z,25.58
2023-01-26T14:04:22.025Z,26.92
2023-01-26T14:06:58.089Z,24.25
2023-01-26T14:09:33.209Z,32.10
2023-01-26T14:12:07.130Z,24.70
2023-01-26T14:14:39.174Z,28.05
2023-01-26T14:17:26.821Z,26.70
2023-01-26T14:20:00.248Z,23.52
2023-01-26T14:22:32.224Z,24.15
2023-01-26T14:25:10.716Z,28.48
2023-01-26T14:27:43.199Z,39.40
2023-01-26T14:30:25.703Z,31.15
2023-01-26T14:33:04.085Z,31.58
2023-01-26T14:35:36.065Z,29.92
2023-01-26T14:38:15.785Z,29.45
2023-01-26T14:40:50.134Z,24.55
2023-01-26T14:43:22.757Z,26.65
2023-01-26T14:46:01.257Z,22.58
2023-01-26T14:48:39.764Z,22.73
2023-01-26T14:51:18.310Z,24.58
2023-01-26T14:53:52.280Z,21.95
2023-01-26T14:56:33.599Z,23.35
2023-01-26T14:59:07.813Z,19.88
2023-01-26T15:01:39.962Z,23.30
2023-01-26T15:04:25.007Z,24.52
2023-01-26T15:06:56.989Z,21.27
2023-01-26T15:09:29.256Z,21.08
2023-01-26T15:12:17.022Z,22.23
2023-01-26T15:14:51.300Z,20.88
2023-01-26T15:17:35.925Z,18.75
2023-01-26T15:20:40.142Z,22.90
2023-01-26T15:23:27.703Z,21.23
2023-01-26T15:26:07.638Z,26.67
2023-01-26T15:28:40.725Z,33.65
2023-01-26T15:31:21.291Z,24.00
2023-01-26T15:33:54.835Z,29.02
2023-01-26T15:36:33.655Z,35.35
2023-01-26T15:39:15.181Z,25.65
2023-01-26T15:42:01.797Z,30.67
2023-01-26T15:44:33.807Z,22.70
2023-01-26T15:47:09.203Z,21.42
2023-01-26T15:49:42.216Z,24.52
2023-01-26T15:52:16.778Z,23.67
2023-01-26T15:54:49.727Z,21.70
2023-01-26T15:57:21.623Z,22.90
2023-01-26T15:59:53.690Z,27.70
2023-01-26T16:02:26.745Z,26.88
2023-01-26T16:04:58.797Z,26.58
2023-01-26T16:07:32.107Z,25.55
2023-01-26T16:10:04.852Z,30.23
2023-01-26T16:12:36.811Z,31.45
2023-01-26T16:15:27.206Z,29.95
2023-01-26T16:20:31.015Z,27.02
2023-01-26T16:23:06.368Z,26.08
2023-01-26T16:25:39.496Z,26.33
2023-01-26T16:28:11.573Z,24.27
2023-01-26T16:30:45.336Z,26.67
2023-01-26T16:33:21.199Z,25.27
2023-01-26T16:35:53.604Z,23.10
2023-01-26T16:38:26.986Z,24.80
2023-01-26T16:40:59.024Z,23.30
2023-01-26T16:43:31.505Z,26.13
2023-01-26T16:46:03.679Z,26.77
2023-01-26T16:48:35.658Z,24.38
2023-01-26T16:51:20.297Z,24.83
2023-01-26T16:53:55.491Z,23.45
2023-01-26T16:56:28.780Z,24.35
2023-01-26T16:59:00.687Z,22.30
2023-01-26T17:01:35.258Z,23.05
2023-01-26T17:04:07.334Z,22.95
2023-01-26T17:06:39.363Z,24.00
2023-01-26T17:09:12.730Z,26.83
2023-01-26T17:11:44.707Z,26.23
2023-01-26T17:14:16.697Z,26.08
2023-01-26T17:16:48.757Z,25.33
2023-01-26T17:19:21.570Z,25.52
2023-01-26T17:21:53.818Z,21.33
2023-01-26T17:24:27.167Z,25.05
2023-01-26T17:26:59.275Z,24.52
2023-01-26T17:29:31.231Z,21.95
2023-01-26T17:32:03.566Z,21.95
2023-01-26T17:34:35.495Z,24.63
2023-01-26T17:37:07.574Z,24.33
2023-01-26T17:39:40.865Z,26.60
2023-01-26T17:42:12.877Z,24.63
2023-01-26T17:44:45.129Z,24.65
2023-01-26T17:47:17.139Z,27.90
2023-01-26T17:49:49.118Z,22.52
2023-01-26T17:52:21.092Z,26.77
2023-01-26T17:54:54.439Z,22.33
2023-01-26T17:57:26.393Z,26.40
2023-01-26T17:59:58.318Z,25.70
2023-01-26T18:02:30.352Z,23.90
2023-01-26T18:05:02.312Z,26.02
2023-01-26T18:07:34.366Z,22.40
2023-01-26T18:10:09.521Z,22.92
2023-01-26T18:12:41.480Z,22.35
2023-01-26T18:15:13.779Z,22.90
2023-01-26T18:17:45.882Z,22.05
2023-01-26T18:20:18.106Z,23.50
2023-01-26T18:22:50.139Z,22.88
2023-01-26T18:25:23.463Z,21.23
2023-01-26T18:27:55.472Z,24.77
2023-01-26T18:30:27.517Z,22.55
2023-01-26T18:32:59.486Z,25.73
2023-01-26T18:35:31.519Z,23.40
2023-01-26T18:38:03.479Z,27.55
2023-01-26T18:40:39.347Z,25.98
2023-01-26T18:43:11.317Z,28.13
2023-01-26T18:45:43.370Z,23.30
2023-01-26T18:48:15.414Z,25.35
2023-01-26T18:50:48.539Z,24.15
2023-01-26T18:53:20.572Z,25.27
2023-01-26T18:56:01.681Z,26.05
2023-01-26T18:58:34.896Z,28.20
2023-01-26T19:01:10.475Z,25.42
2023-01-26T19:03:47.562Z,24.50
2023-01-26T19:06:20.140Z,26.77
2023-01-26T19:08:58.794Z,24.58
2023-01-26T19:11:33.958Z,22.00
2023-01-26T19:14:07.880Z,23.15
2023-01-26T19:16:40.352Z,22.00
2023-01-26T19:19:12.328Z,23.05
2023-01-26T19:21:44.274Z,24.15
2023-01-26T19:24:16.337Z,23.25
2023-01-26T19:26:49.697Z,24.48
2023-01-26T19:29:21.687Z,24.80
2023-01-26T19:31:53.705Z,22.05
2023-01-26T19:34:28.314Z,23.20
2023-01-26T19:37:00.254Z,21.73
2023-01-26T19:39:32.238Z,25.67
2023-01-26T19:42:05.843Z,38.33
2023-01-26T19:44:37.799Z,34.45
2023-01-26T19:47:09.775Z,25.27
2023-01-26T19:49:41.728Z,27.65
2023-01-26T19:52:13.717Z,26.73
2023-01-26T19:54:45.669Z,23.45
2023-01-26T19:57:19.011Z,25.73
2023-01-26T19:59:52.352Z,24.77
2023-01-26T20:02:24.544Z,30.35
2023-01-26T20:04:56.497Z,22.08
2023-01-26T20:07:28.630Z,23.48
2023-01-26T20:10:00.624Z,25.27
2023-01-26T20:12:34.216Z,25.88
2023-01-26T20:15:08.664Z,27.23
2023-01-26T20:17:42.230Z,25.55
2023-01-26T20:20:14.345Z,24.00
2023-01-26T20:22:46.290Z,25.08
2023-01-26T20:25:18.403Z,23.63
2023-01-26T20:27:51.840Z,25.10
2023-01-26T20:30:23.777Z,26.23
2023-01-26T20:32:55.816Z,25.25
2023-01-26T20:35:28.165Z,24.40
2023-01-26T20:38:00.204Z,22.40
2023-01-26T20:40:32.231Z,25.85
2023-01-26T20:43:05.519Z,26.38
2023-01-26T20:45:39.834Z,27.42
2023-01-26T20:48:11.793Z,25.17
2023-01-26T20:50:45.094Z,27.05
2023-01-26T20:53:17.034Z,26.27
2023-01-26T20:55:49.046Z,26.92
2023-01-26T20:58:22.361Z,23.20
2023-01-26T21:00:54.431Z,26.80
2023-01-26T21:03:26.481Z,29.27
2023-01-26T21:05:58.740Z,25.92
2023-01-26T21:08:31.317Z,26.48
2023-01-26T21:11:03.348Z,45.78
2023-01-26T21:13:37.408Z,41.92
2023-01-26T21:16:12.290Z,36.33
2023-01-26T21:18:46.094Z,29.10
2023-01-26T21:21:18.268Z,26.73
2023-01-26T21:23:50.795Z,25.55
2023-01-26T21:26:24.735Z,30.42
2023-01-26T21:28:59.757Z,29.90
2023-01-26T21:31:34.405Z,21.13
2023-01-26T21:34:06.425Z,28.20
2023-01-26T21:36:38.416Z,23.80
2023-01-26T21:39:13.536Z,20.30
2023-01-26T21:41:59.022Z,17.33
2023-01-26T21:44:33.100Z,17.35
2023-01-26T21:47:05.304Z,21.02
2023-01-26T21:49:37.223Z,18.50
2023-01-26T21:52:29.256Z,12.27
2023-01-26T21:55:01.222Z,12.13
2023-01-26T21:57:51.886Z,11.98
2023-01-26T22:00:25.345Z,16.33
2023-01-26T22:02:59.606Z,11.63
2023-01-26T22:05:31.491Z,7.63
2023-01-26T22:08:03.520Z,19.55
2023-01-26T22:10:35.433Z,8.10
2023-01-26T22:13:07.371Z,6.00
2023-01-26T22:15:40.665Z,4.75
2023-01-26T22:18:12.667Z,4.43
2023-01-26T22:20:44.837Z,3.67
2023-01-26T22:23:16.833Z,3.30
2023-01-26T22:25:48.779Z,3.40
2023-01-26T22:28:20.695Z,2.95
2023-01-26T22:31:00.795Z,3.20
2023-01-26T22:33:35.605Z,2.63
2023-01-26T22:36:11.279Z,2.70
2023-01-26T22:38:43.350Z,2.50
2023-01-26T22:41:19.719Z,3.13
2023-01-26T22:43:54.345Z,2.88
2023-01-26T22:46:29.334Z,2.95
2023-01-26T22:49:01.362Z,3.10
2023-01-26T22:51:37.078Z,2.50
2023-01-26T22:54:09.499Z,2.20
2023-01-26T22:56:41.710Z,2.28
2023-01-26T22:59:13.837Z,3.50
2023-01-26T23:01:47.250Z,2.33
2023-01-26T23:04:20.098Z,2.13
2023-01-26T23:06:52.091Z,1.83
2023-01-26T23:09:24.075Z,2.22
2023-01-26T23:12:04.489Z,2.22
2023-01-26T23:14:36.473Z,1.67
2023-01-26T23:17:11.322Z,1.58
2023-01-26T23:19:43.344Z,2.13
2023-01-26T23:22:15.285Z,2.03
2023-01-26T23:25:07.486Z,1.98
2023-01-26T23:27:39.441Z,1.23
2023-01-26T23:30:12.415Z,2.30
2023-01-26T23:32:45.922Z,1.52
2023-01-26T23:35:18.383Z,1.60
2023-01-26T23:37:50.348Z,1.58
2023-01-26T23:40:22.291Z,1.60
2023-01-26T23:43:10.596Z,1.58
2023-01-26T23:45:47.485Z,1.70
2023-01-26T23:48:20.845Z,2.35
2023-01-26T23:50:55.855Z,1.67
2023-01-26T23:53:28.430Z,1.67
2023-01-26T23:56:03.317Z,1.52
2023-01-26T23:58:36.522Z,1.45
